Time;durP1;ratioP1;P1;durP2;ratioP2;P2;SDS_P1;SDS_P2;PMS_P1;PMS_P2;Temp;Humidity;BMP_temperature;BMP_pressure;BME280_temperature;BME280_humidity;BME280_pressure;Samples;Min_cycle;Max_cycle;Signal;HPM_P1;HPM_P2
2023/12/08 00:02:07;;;;;;;23.57;10.33;;;3.10;99.90;;;;;;5092091;28;20408;-89
2023/12/08 00:04:33;;;;;;;23.53;10.40;;;3.10;99.90;;;;;;5075698;28;20054;-88
2023/12/08 00:06:59;;;;;;;19.27;9.40;;;3.00;99.90;;;;;;5088215;28;20037;-89
2023/12/08 00:09:24;;;;;;;17.30;9.30;;;3.10;99.90;;;;;;5079412;28;20052;-89
2023/12/08 00:11:50;;;;;;;19.37;9.33;;;3.10;99.90;;;;;;5081035;28;20415;-90
2023/12/08 00:14:15;;;;;;;19.13;9.10;;;3.10;99.90;;;;;;5072831;28;20032;-88
2023/12/08 00:16:41;;;;;;;19.93;9.23;;;3.20;99.90;;;;;;5088828;28;20032;-90
2023/12/08 00:19:07;;;;;;;15.90;8.70;;;3.10;99.90;;;;;;5076752;28;20032;-86
2023/12/08 00:21:33;;;;;;;20.10;9.50;;;3.10;99.90;;;;;;5083545;28;20466;-87
2023/12/08 00:23:58;;;;;;;21.67;10.37;;;3.10;99.90;;;;;;5084412;28;20039;-91
2023/12/08 00:26:24;;;;;;;19.80;9.23;;;3.10;99.90;;;;;;5076071;28;20501;-88
2023/12/08 00:28:50;;;;;;;20.70;9.10;;;3.10;99.90;;;;;;5105782;28;20031;-91
2023/12/08 00:31:15;;;;;;;19.37;9.27;;;3.20;99.90;;;;;;5109216;28;20032;-91
2023/12/08 00:33:41;;;;;;;21.33;10.00;;;3.20;99.90;;;;;;5086436;28;20024;-93
2023/12/08 00:36:15;;;;;;;20.23;9.50;;;3.20;99.90;;;;;;5080917;28;20086;-86
2023/12/08 00:38:41;;;;;;;22.47;9.60;;;3.00;99.90;;;;;;5094351;28;20057;-90
2023/12/08 00:41:08;;;;;;;25.50;9.63;;;3.10;99.90;;;;;;5095175;28;20059;-88
2023/12/08 00:43:34;;;;;;;18.70;8.97;;;3.10;99.90;;;;;;5096203;28;20035;-87
2023/12/08 00:45:59;;;;;;;21.50;9.77;;;3.10;99.90;;;;;;5096472;28;20024;-86
2023/12/08 00:48:25;;;;;;;19.90;8.77;;;3.10;99.90;;;;;;5096171;28;20031;-87
2023/12/08 00:50:50;;;;;;;22.23;9.73;;;3.10;99.90;;;;;;5096546;28;20020;-86
2023/12/08 00:53:16;;;;;;;20.53;9.77;;;3.10;99.90;;;;;;5095627;28;20032;-89
2023/12/08 00:55:42;;;;;;;18.27;9.13;;;3.10;99.90;;;;;;5096119;28;20032;-88
2023/12/08 00:58:07;;;;;;;21.13;8.87;;;3.10;99.90;;;;;;5096128;28;20024;-89
2023/12/08 01:00:33;;;;;;;22.67;9.83;;;3.20;99.90;;;;;;5096136;28;20032;-89
2023/12/08 01:02:59;;;;;;;19.53;9.60;;;3.10;99.90;;;;;;5097233;28;20077;-89
2023/12/08 01:05:24;;;;;;;23.20;10.03;;;3.20;99.90;;;;;;5096169;28;20099;-89
2023/12/08 01:07:50;;;;;;;21.50;9.80;;;3.10;99.90;;;;;;5096855;28;20070;-89
2023/12/08 01:10:15;;;;;;;20.37;9.37;;;3.20;99.90;;;;;;5095834;28;20476;-88
2023/12/08 01:12:42;;;;;;;21.83;9.53;;;3.10;99.90;;;;;;5096043;28;20020;-89
2023/12/08 01:15:09;;;;;;;22.73;10.43;;;3.10;99.90;;;;;;5096220;28;20035;-88
2023/12/08 01:17:34;;;;;;;23.13;10.10;;;3.10;99.90;;;;;;5096792;28;20062;-88
2023/12/08 01:20:00;;;;;;;25.40;10.80;;;3.10;99.90;;;;;;5096639;28;20028;-88
2023/12/08 01:22:27;;;;;;;21.13;9.67;;;3.10;99.90;;;;;;5095149;28;20564;-88
2023/12/08 01:24:53;;;;;;;21.63;9.87;;;3.10;99.90;;;;;;5095496;28;20024;-88
2023/12/08 01:27:19;;;;;;;24.13;10.00;;;3.10;99.90;;;;;;5095223;28;20028;-88
2023/12/08 01:29:45;;;;;;;24.57;10.83;;;3.00;99.90;;;;;;5096560;28;20028;-88
2023/12/08 01:32:10;;;;;;;22.47;10.07;;;3.00;99.90;;;;;;5094566;28;20107;-89
2023/12/08 01:34:36;;;;;;;25.63;10.40;;;3.10;99.90;;;;;;5095654;28;20060;-88
2023/12/08 01:37:01;;;;;;;27.83;11.10;;;3.00;99.90;;;;;;5096673;28;20024;-88
2023/12/08 01:39:27;;;;;;;28.63;12.50;;;3.00;99.90;;;;;;5094779;28;20147;-86
2023/12/08 01:41:52;;;;;;;27.00;11.43;;;3.00;99.90;;;;;;5094903;28;20024;-86
2023/12/08 01:44:18;;;;;;;24.10;9.70;;;2.90;99.90;;;;;;5094755;28;20024;-86
2023/12/08 01:46:45;;;;;;;23.37;10.27;;;2.90;99.90;;;;;;5096078;28;20036;-86
2023/12/08 01:49:12;;;;;;;19.73;9.23;;;2.90;99.90;;;;;;5094827;28;20032;-89
2023/12/08 01:51:37;;;;;;;20.97;9.17;;;3.00;99.90;;;;;;5095007;28;20030;-86
2023/12/08 01:54:05;;;;;;;23.23;9.00;;;3.00;99.90;;;;;;5096048;28;20077;-86
2023/12/08 01:56:31;;;;;;;17.90;8.97;;;3.00;99.90;;;;;;5094513;28;20038;-86
2023/12/08 01:58:57;;;;;;;17.83;8.43;;;3.00;99.90;;;;;;5094853;28;20051;-86
2023/12/08 02:01:22;;;;;;;18.77;8.30;;;3.00;99.90;;;;;;5094413;28;20066;-86
2023/12/08 02:03:50;;;;;;;16.73;7.53;;;3.00;99.90;;;;;;5095377;28;20028;-86
2023/12/08 02:06:17;;;;;;;16.17;8.00;;;3.00;99.90;;;;;;5094274;28;20127;-85
2023/12/08 02:08:44;;;;;;;16.90;8.30;;;3.00;99.90;;;;;;5095533;28;20032;-84
2023/12/08 02:11:10;;;;;;;14.67;7.37;;;3.00;99.90;;;;;;5094355;28;20031;-84
2023/12/08 02:13:36;;;;;;;15.07;7.40;;;3.00;99.90;;;;;;5094328;28;20024;-85
2023/12/08 02:16:27;;;;;;;12.70;6.43;;;3.00;99.90;;;;;;5094500;28;20035;-85
2023/12/08 02:18:54;;;;;;;14.20;6.83;;;3.00;99.90;;;;;;5095505;28;20024;-85
2023/12/08 02:21:20;;;;;;;16.23;7.27;;;3.00;99.90;;;;;;5094945;28;20028;-85
2023/12/08 02:23:49;;;;;;;12.73;6.57;;;3.00;99.90;;;;;;5094406;28;20032;-85
2023/12/08 02:26:15;;;;;;;13.83;6.90;;;3.00;99.90;;;;;;5094121;28;20031;-86
2023/12/08 02:28:41;;;;;;;12.70;6.53;;;2.90;99.90;;;;;;5094613;28;20070;-85
2023/12/08 02:31:13;;;;;;;10.83;6.00;;;2.90;99.90;;;;;;5095425;28;20036;-85
2023/12/08 02:33:42;;;;;;;14.93;6.80;;;2.90;99.90;;;;;;5094151;28;20024;-85
2023/12/08 02:36:09;;;;;;;11.30;6.50;;;2.90;99.90;;;;;;5094158;28;20039;-86
2023/12/08 02:38:37;;;;;;;13.97;6.67;;;2.90;99.90;;;;;;5093565;28;20028;-85
2023/12/08 02:41:03;;;;;;;14.40;7.43;;;3.00;99.90;;;;;;5093699;28;20059;-85
2023/12/08 02:43:28;;;;;;;14.10;6.63;;;2.90;99.90;;;;;;5093631;28;20020;-85
2023/12/08 02:45:54;;;;;;;14.27;7.30;;;2.90;99.90;;;;;;5094050;28;20059;-85
2023/12/08 02:48:21;;;;;;;17.00;7.77;;;2.90;99.90;;;;;;5093608;28;20128;-85
2023/12/08 02:50:46;;;;;;;15.07;7.27;;;3.00;99.90;;;;;;5079147;28;20052;-85
2023/12/08 02:53:12;;;;;;;14.50;8.07;;;3.00;99.90;;;;;;5074168;28;20491;-85
2023/12/08 02:55:37;;;;;;;16.33;7.60;;;3.00;99.90;;;;;;5073245;28;20056;-85
2023/12/08 02:58:03;;;;;;;16.00;7.73;;;3.00;99.90;;;;;;5073450;28;20460;-86
2023/12/08 03:00:28;;;;;;;18.57;7.77;;;3.00;99.90;;;;;;5073178;28;20433;-86
2023/12/08 03:02:54;;;;;;;19.60;8.30;;;3.00;99.90;;;;;;5073598;28;20024;-86
2023/12/08 03:05:20;;;;;;;15.97;7.83;;;3.00;99.90;;;;;;5072909;28;20035;-84
2023/12/08 03:07:45;;;;;;;19.80;8.43;;;3.00;99.90;;;;;;5073532;28;20055;-84
2023/12/08 03:10:11;;;;;;;20.37;8.70;;;3.00;99.90;;;;;;5073524;28;20027;-84
2023/12/08 03:12:36;;;;;;;18.23;8.00;;;2.90;99.90;;;;;;5072899;28;20538;-85
2023/12/08 03:15:02;;;;;;;17.17;8.53;;;2.90;99.90;;;;;;5073321;28;20032;-84
2023/12/08 03:17:28;;;;;;;22.37;8.80;;;3.00;99.90;;;;;;5072795;28;20028;-85
2023/12/08 03:19:53;;;;;;;20.43;8.70;;;3.00;99.90;;;;;;5073396;28;20035;-85
2023/12/08 03:22:19;;;;;;;20.20;9.00;;;2.90;99.90;;;;;;5072390;28;20020;-85
2023/12/08 03:24:44;;;;;;;18.80;7.80;;;3.00;99.90;;;;;;5073175;28;20025;-84
2023/12/08 03:27:10;;;;;;;17.93;7.97;;;2.90;99.90;;;;;;5074061;28;20453;-84
2023/12/08 03:29:42;;;;;;;21.30;9.00;;;3.00;99.90;;;;;;5072534;28;20200;-85
2023/12/08 03:32:08;;;;;;;20.00;8.52;;;3.00;99.90;;;;;;5073964;28;20132;-84
2023/12/08 03:34:34;;;;;;;18.93;8.53;;;3.00;99.90;;;;;;5072529;28;20052;-84
2023/12/08 03:36:59;;;;;;;19.00;8.60;;;3.00;99.90;;;;;;5086519;28;20063;-84
2023/12/08 03:39:25;;;;;;;20.33;9.50;;;3.00;99.90;;;;;;5092363;28;20058;-84
2023/12/08 03:41:50;;;;;;;18.13;9.17;;;3.10;99.90;;;;;;5094376;28;20035;-84
2023/12/08 03:44:16;;;;;;;22.27;8.97;;;3.10;99.90;;;;;;5093514;28;20532;-85
2023/12/08 03:46:42;;;;;;;23.30;9.50;;;3.10;99.90;;;;;;5094007;28;20059;-85
2023/12/08 03:49:08;;;;;;;24.33;9.50;;;3.10;99.90;;;;;;5092996;28;20035;-86
2023/12/08 03:51:34;;;;;;;24.20;9.40;;;3.10;99.90;;;;;;5092630;28;20031;-85
2023/12/08 03:53:59;;;;;;;23.53;9.43;;;3.00;99.90;;;;;;5092928;28;20546;-85
2023/12/08 03:56:25;;;;;;;23.13;9.67;;;3.10;99.90;;;;;;5092544;28;20032;-86
2023/12/08 03:58:51;;;;;;;24.60;10.17;;;3.20;99.90;;;;;;5094046;28;20502;-87
2023/12/08 04:01:17;;;;;;;23.43;9.00;;;3.20;99.90;;;;;;5092713;28;20051;-87
2023/12/08 04:03:43;;;;;;;21.73;9.70;;;3.20;99.90;;;;;;5093455;28;20028;-87
2023/12/08 04:06:09;;;;;;;24.20;9.77;;;3.30;99.90;;;;;;5097156;28;20085;-87
2023/12/08 04:08:34;;;;;;;27.77;10.17;;;3.30;99.90;;;;;;5097964;28;20038;-87
2023/12/08 04:11:00;;;;;;;25.03;10.27;;;3.40;99.90;;;;;;5098193;28;20028;-86
2023/12/08 04:13:25;;;;;;;24.67;10.90;;;3.40;99.90;;;;;;5096625;28;20035;-87
2023/12/08 04:15:51;;;;;;;28.03;10.40;;;3.40;99.90;;;;;;5096988;28;20035;-87
2023/12/08 04:18:16;;;;;;;24.70;10.33;;;3.40;99.90;;;;;;5097946;28;20063;-87
2023/12/08 04:20:42;;;;;;;25.60;11.13;;;3.40;99.90;;;;;;5096474;28;20385;-88
2023/12/08 04:23:07;;;;;;;26.60;10.30;;;3.30;99.90;;;;;;5096709;28;20024;-88
2023/12/08 04:25:34;;;;;;;23.50;10.20;;;3.30;99.90;;;;;;5096873;28;20034;-87
2023/12/08 04:27:59;;;;;;;26.17;10.73;;;3.40;99.90;;;;;;5096723;28;20499;-88
2023/12/08 04:30:25;;;;;;;24.50;10.60;;;3.30;99.90;;;;;;5095944;28;20043;-88
2023/12/08 04:32:51;;;;;;;27.00;10.67;;;3.30;99.90;;;;;;5096822;28;20473;-88
2023/12/08 04:35:16;;;;;;;23.50;10.00;;;3.30;99.90;;;;;;5097605;28;20028;-88
2023/12/08 04:37:42;;;;;;;23.47;10.43;;;3.20;99.90;;;;;;5096142;28;20055;-88
2023/12/08 04:40:08;;;;;;;22.63;10.20;;;3.20;99.90;;;;;;5096198;28;20075;-89
2023/12/08 04:42:36;;;;;;;27.87;11.00;;;3.20;99.90;;;;;;5096972;28;20080;-89
2023/12/08 04:45:02;;;;;;;21.13;9.27;;;3.20;99.90;;;;;;5096326;28;20404;-89
2023/12/08 04:47:28;;;;;;;25.80;10.57;;;3.30;99.90;;;;;;5095820;28;20396;-89
2023/12/08 04:49:54;;;;;;;26.10;11.10;;;3.30;99.90;;;;;;5097308;28;20020;-89
2023/12/08 04:52:19;;;;;;;25.10;9.97;;;3.30;99.90;;;;;;5097362;28;20016;-86
2023/12/08 04:54:45;;;;;;;27.27;9.83;;;3.30;99.90;;;;;;5095675;28;20028;-89
2023/12/08 04:57:11;;;;;;;25.47;9.87;;;3.30;99.90;;;;;;5096358;28;20020;-89
2023/12/08 04:59:38;;;;;;;23.13;9.80;;;3.40;99.90;;;;;;5095640;28;20062;-89
2023/12/08 05:02:04;;;;;;;26.60;10.70;;;3.40;99.90;;;;;;5097391;28;20030;-89
2023/12/08 05:04:30;;;;;;;25.70;9.87;;;3.30;99.90;;;;;;5095693;28;20542;-89
2023/12/08 05:06:55;;;;;;;22.73;9.17;;;3.30;99.90;;;;;;5095913;28;20052;-89
2023/12/08 05:09:21;;;;;;;21.83;9.47;;;3.20;99.90;;;;;;5096815;28;20024;-89
2023/12/08 05:11:47;;;;;;;25.40;10.03;;;3.20;99.90;;;;;;5095630;28;20527;-89
2023/12/08 05:14:13;;;;;;;22.80;10.03;;;3.20;99.90;;;;;;5096957;28;20066;-90
2023/12/08 05:16:39;;;;;;;22.93;9.77;;;3.20;99.90;;;;;;5094494;28;20085;-89
2023/12/08 05:19:04;;;;;;;21.63;9.13;;;3.20;99.90;;;;;;5095628;28;20024;-88
2023/12/08 05:21:30;;;;;;;23.87;9.50;;;3.30;99.90;;;;;;5096387;28;20133;-87
2023/12/08 05:23:56;;;;;;;24.90;9.63;;;3.30;99.90;;;;;;5095630;28;20378;-86
2023/12/08 05:26:23;;;;;;;20.73;8.87;;;3.30;99.90;;;;;;5096599;28;20053;-87
2023/12/08 05:28:49;;;;;;;22.60;9.47;;;3.30;99.90;;;;;;5095385;28;20134;-87
2023/12/08 05:31:14;;;;;;;20.17;9.00;;;3.30;99.90;;;;;;5095559;28;20070;-87
2023/12/08 05:33:40;;;;;;;25.10;9.20;;;3.40;99.90;;;;;;5094934;28;20032;-87
2023/12/08 05:36:06;;;;;;;23.37;9.23;;;3.40;99.90;;;;;;5096496;28;20031;-87
2023/12/08 05:38:31;;;;;;;18.43;8.83;;;3.50;99.90;;;;;;5095837;28;20073;-87
2023/12/08 05:40:57;;;;;;;19.87;8.77;;;3.40;99.90;;;;;;5095229;28;20114;-87
2023/12/08 05:43:23;;;;;;;20.37;8.77;;;3.50;99.90;;;;;;5096498;28;20039;-85
2023/12/08 05:45:48;;;;;;;22.10;9.70;;;3.50;99.90;;;;;;5095819;28;20028;-85
2023/12/08 05:48:14;;;;;;;21.97;8.77;;;3.40;99.90;;;;;;5095270;28;20043;-85
2023/12/08 05:50:39;;;;;;;20.73;8.80;;;3.40;99.90;;;;;;5094721;28;20024;-85
2023/12/08 05:53:05;;;;;;;24.13;9.73;;;3.40;99.90;;;;;;5095127;28;20456;-86
2023/12/08 05:55:31;;;;;;;22.97;10.23;;;3.50;99.90;;;;;;5094392;28;20070;-85
2023/12/08 05:57:56;;;;;;;22.97;9.60;;;3.40;99.90;;;;;;5094847;28;20388;-85
2023/12/08 06:00:22;;;;;;;22.43;9.67;;;3.30;99.90;;;;;;5094697;28;20024;-84
2023/12/08 06:02:47;;;;;;;22.97;9.60;;;3.40;99.90;;;;;;5094437;28;20118;-85
2023/12/08 06:05:13;;;;;;;19.40;8.77;;;3.40;99.90;;;;;;5094881;28;20484;-84
2023/12/08 06:07:39;;;;;;;24.37;9.53;;;3.40;99.90;;;;;;5094519;28;20039;-85
2023/12/08 06:10:07;;;;;;;22.50;9.20;;;3.40;99.90;;;;;;5095016;28;20074;-84
2023/12/08 06:12:33;;;;;;;23.37;9.93;;;3.40;99.90;;;;;;5094603;28;20024;-85
2023/12/08 06:15:00;;;;;;;23.37;9.73;;;3.40;99.90;;;;;;5094865;28;20028;-90
2023/12/08 06:17:26;;;;;;;22.70;10.03;;;3.40;99.90;;;;;;5095637;28;20028;-87
2023/12/08 06:19:52;;;;;;;22.50;9.40;;;3.40;99.90;;;;;;5094674;28;20066;-88
2023/12/08 06:22:18;;;;;;;25.73;9.80;;;3.40;99.90;;;;;;5094574;28;20136;-87
2023/12/08 06:24:43;;;;;;;25.63;10.37;;;3.50;99.90;;;;;;5094172;28;20043;-88
2023/12/08 06:27:09;;;;;;;24.50;9.90;;;3.50;99.90;;;;;;5094477;28;20023;-88
2023/12/08 06:29:35;;;;;;;21.27;10.03;;;3.40;99.90;;;;;;5094271;28;20468;-88
2023/12/08 06:32:00;;;;;;;24.00;9.50;;;3.40;99.90;;;;;;5095724;28;20073;-89
2023/12/08 06:34:26;;;;;;;24.30;9.80;;;3.40;99.90;;;;;;5094411;28;20458;-83
2023/12/08 06:36:52;;;;;;;29.87;10.33;;;3.40;99.90;;;;;;5094057;28;20042;-86
2023/12/08 06:39:17;;;;;;;22.60;10.43;;;3.40;99.90;;;;;;5094380;28;20071;-89
2023/12/08 06:41:43;;;;;;;24.17;10.67;;;3.50;99.90;;;;;;5094017;28;20097;-89
2023/12/08 06:44:10;;;;;;;22.60;8.93;;;3.50;99.90;;;;;;5094391;28;20073;-89
2023/12/08 06:46:35;;;;;;;19.23;8.83;;;3.50;99.90;;;;;;5094808;28;20039;-89
2023/12/08 06:49:01;;;;;;;23.17;9.43;;;3.50;99.90;;;;;;5094088;28;20024;-91
2023/12/08 06:51:28;;;;;;;21.57;9.43;;;3.40;99.90;;;;;;5095200;28;20024;-90
2023/12/08 06:53:53;;;;;;;19.23;9.13;;;3.50;99.90;;;;;;5094589;28;20035;-90
2023/12/08 06:56:21;;;;;;;23.17;9.07;;;3.50;99.90;;;;;;5094005;28;20114;-91
2023/12/08 06:58:47;;;;;;;20.20;8.80;;;3.60;99.90;;;;;;5094393;28;20035;-88
2023/12/08 07:01:13;;;;;;;22.27;9.20;;;3.50;99.90;;;;;;5093927;28;20032;-85
2023/12/08 07:03:38;;;;;;;20.63;8.60;;;3.50;99.90;;;;;;5093507;28;20038;-88
2023/12/08 07:06:04;;;;;;;23.77;9.73;;;3.50;99.90;;;;;;5093624;28;20024;-86
2023/12/08 07:08:30;;;;;;;24.13;9.73;;;3.50;99.90;;;;;;5093734;28;20457;-88
2023/12/08 07:10:55;;;;;;;22.73;9.43;;;3.50;99.90;;;;;;5093229;28;20024;-86
2023/12/08 07:13:21;;;;;;;21.47;9.00;;;3.50;99.90;;;;;;5093515;28;20073;-86
2023/12/08 07:15:46;;;;;;;21.47;9.40;;;3.50;99.90;;;;;;5093170;28;20034;-86
2023/12/08 07:18:12;;;;;;;19.90;8.93;;;3.50;99.90;;;;;;5093671;28;20020;-85
2023/12/08 07:20:38;;;;;;;19.73;8.60;;;3.40;99.90;;;;;;5093223;28;20453;-86
2023/12/08 07:23:03;;;;;;;23.30;9.13;;;3.50;99.90;;;;;;5093368;28;20173;-84
2023/12/08 07:25:31;;;;;;;19.90;9.17;;;3.50;99.90;;;;;;5094592;28;20028;-85
2023/12/08 07:27:57;;;;;;;18.83;8.87;;;3.50;99.90;;;;;;5093222;28;20491;-87
2023/12/08 07:30:22;;;;;;;24.30;9.33;;;3.50;99.90;;;;;;5093626;28;20114;-88
2023/12/08 07:32:48;;;;;;;22.80;8.83;;;3.50;99.90;;;;;;5092841;28;20032;-88
2023/12/08 07:35:14;;;;;;;22.33;9.83;;;3.50;99.90;;;;;;5094084;28;20016;-88
2023/12/08 07:37:40;;;;;;;22.33;9.30;;;3.60;99.90;;;;;;5092871;28;20024;-87
2023/12/08 07:40:07;;;;;;;17.73;8.87;;;3.60;99.90;;;;;;5092604;28;20063;-88
2023/12/08 07:42:33;;;;;;;22.83;8.93;;;3.50;99.90;;;;;;5092683;28;20028;-88
2023/12/08 07:44:58;;;;;;;20.50;8.43;;;3.50;99.90;;;;;;5093118;28;20035;-88
2023/12/08 07:47:24;;;;;;;19.23;9.70;;;3.50;99.90;;;;;;5093094;28;20032;-88
2023/12/08 07:49:50;;;;;;;21.00;8.73;;;3.50;99.90;;;;;;5092843;28;20024;-87
2023/12/08 07:52:15;;;;;;;19.03;8.93;;;3.60;99.90;;;;;;5093160;28;20024;-90
2023/12/08 07:54:41;;;;;;;17.73;8.50;;;3.60;99.90;;;;;;5093005;28;20028;-90
2023/12/08 07:57:07;;;;;;;19.70;8.93;;;3.50;99.90;;;;;;5094079;28;20031;-89
2023/12/08 07:59:33;;;;;;;17.13;8.43;;;3.60;99.90;;;;;;5092777;28;20024;-89
2023/12/08 08:01:59;;;;;;;17.47;7.83;;;3.60;99.90;;;;;;5092567;28;20034;-88
2023/12/08 08:04:25;;;;;;;16.07;7.70;;;3.70;99.90;;;;;;5093093;28;20078;-88
2023/12/08 08:06:50;;;;;;;18.70;8.63;;;3.60;99.90;;;;;;5092502;28;20039;-86
2023/12/08 08:09:18;;;;;;;17.80;8.33;;;3.60;99.90;;;;;;5092952;28;20028;-83
2023/12/08 08:11:44;;;;;;;16.63;8.70;;;3.60;99.90;;;;;;5092531;28;20047;-85
2023/12/08 08:14:10;;;;;;;15.37;7.93;;;3.50;99.90;;;;;;5092760;28;20025;-85
2023/12/08 08:16:36;;;;;;;17.10;8.47;;;3.50;99.90;;;;;;5093410;28;20034;-87
2023/12/08 08:19:02;;;;;;;16.47;8.10;;;3.50;99.90;;;;;;5093460;28;20115;-86
2023/12/08 08:21:28;;;;;;;17.97;8.77;;;3.50;99.90;;;;;;5093852;28;20483;-89
2023/12/08 08:23:54;;;;;;;14.50;7.80;;;3.50;99.90;;;;;;5092205;28;20055;-89
2023/12/08 08:26:19;;;;;;;18.43;7.80;;;3.50;99.90;;;;;;5092564;28;20118;-88
2023/12/08 08:28:45;;;;;;;19.47;8.77;;;3.50;99.90;;;;;;5093172;28;20024;-89
2023/12/08 08:31:12;;;;;;;16.97;8.00;;;3.50;99.90;;;;;;5092551;28;20030;-88
2023/12/08 08:33:38;;;;;;;17.30;7.90;;;3.40;99.90;;;;;;5092087;28;20071;-86
2023/12/08 08:36:05;;;;;;;17.83;8.93;;;3.40;99.90;;;;;;5092687;28;20059;-85
2023/12/08 08:38:31;;;;;;;17.00;8.37;;;3.40;99.90;;;;;;5092702;28;20038;-85
2023/12/08 08:40:57;;;;;;;15.57;7.73;;;3.50;99.90;;;;;;5092805;28;20119;-85
2023/12/08 08:43:22;;;;;;;14.43;7.60;;;3.50;99.90;;;;;;5092907;28;20059;-85
2023/12/08 08:45:48;;;;;;;18.93;8.73;;;3.60;99.90;;;;;;5092300;28;20476;-88
2023/12/08 08:48:13;;;;;;;14.97;7.70;;;3.60;99.90;;;;;;5092585;28;20370;-87
2023/12/08 08:50:39;;;;;;;16.33;7.23;;;3.70;99.90;;;;;;5093011;28;20032;-88
2023/12/08 08:53:05;;;;;;;15.30;8.00;;;3.70;99.90;;;;;;5096419;28;20376;-88
2023/12/08 08:55:31;;;;;;;18.97;7.80;;;3.70;99.90;;;;;;5096184;28;20038;-87
2023/12/08 08:57:56;;;;;;;13.23;7.90;;;3.70;99.90;;;;;;5095621;28;20031;-86
2023/12/08 09:00:25;;;;;;;16.77;7.90;;;3.80;99.90;;;;;;5095885;28;20028;-88
2023/12/08 09:02:51;;;;;;;13.83;7.13;;;3.80;99.90;;;;;;5095479;28;20035;-86
2023/12/08 09:05:18;;;;;;;15.73;7.53;;;3.80;99.90;;;;;;5095898;28;20028;-85
2023/12/08 09:07:44;;;;;;;15.30;8.03;;;3.90;99.90;;;;;;5095565;28;20109;-88
2023/12/08 09:10:09;;;;;;;15.63;7.93;;;3.90;99.90;;;;;;5096098;28;20024;-88
2023/12/08 09:12:36;;;;;;;15.80;7.10;;;4.00;99.90;;;;;;5095329;28;20031;-88
2023/12/08 09:15:03;;;;;;;16.60;8.80;;;3.90;99.90;;;;;;5095745;28;20024;-87
2023/12/08 09:17:29;;;;;;;16.13;7.23;;;3.90;99.90;;;;;;5095675;28;20453;-83
2023/12/08 09:19:55;;;;;;;20.10;8.10;;;3.90;99.90;;;;;;5095252;28;20024;-86
2023/12/08 09:22:20;;;;;;;19.77;8.17;;;4.00;99.90;;;;;;5096707;28;20036;-88
2023/12/08 09:24:46;;;;;;;14.37;7.83;;;4.00;99.90;;;;;;5094853;28;20058;-88
2023/12/08 09:27:12;;;;;;;17.20;8.60;;;4.00;99.90;;;;;;5095490;28;20078;-87
2023/12/08 09:29:37;;;;;;;16.80;7.17;;;4.10;99.90;;;;;;5095191;28;20469;-88
2023/12/08 09:32:03;;;;;;;18.03;7.50;;;4.10;99.90;;;;;;5096689;28;20038;-86
2023/12/08 09:34:29;;;;;;;17.37;7.83;;;4.10;99.90;;;;;;5096598;28;20097;-84
2023/12/08 09:36:55;;;;;;;16.57;7.73;;;4.20;99.90;;;;;;5096084;28;20710;-86
2023/12/08 09:39:21;;;;;;;34.70;8.57;;;4.20;99.90;;;;;;5095210;28;20063;-86
2023/12/08 09:41:50;;;;;;;55.53;9.67;;;4.20;99.90;;;;;;5096054;28;20020;-84
2023/12/08 09:44:18;;;;;;;28.27;8.43;;;4.20;99.90;;;;;;5096270;28;20024;-84
2023/12/08 09:46:45;;;;;;;39.03;8.87;;;4.20;99.90;;;;;;5094616;28;20544;-84
2023/12/08 09:49:36;;;;;;;17.97;7.80;;;4.30;99.90;;;;;;5087545;28;20043;-89
2023/12/08 09:52:03;;;;;;;46.10;9.83;;;4.40;99.90;;;;;;5093377;28;20016;-94
2023/12/08 09:54:29;;;;;;;36.30;8.00;;;4.40;99.90;;;;;;5090071;28;20035;-86
2023/12/08 09:56:56;;;;;;;20.33;7.13;;;4.40;99.90;;;;;;5087028;28;20119;-87
2023/12/08 09:59:24;;;;;;;32.10;8.90;;;4.40;99.90;;;;;;5090544;28;20030;-84
2023/12/08 10:01:50;;;;;;;17.33;7.17;;;4.40;99.90;;;;;;5078132;28;20439;-89
2023/12/08 10:04:15;;;;;;;21.27;7.67;;;4.40;99.90;;;;;;5094733;28;20447;-86
2023/12/08 10:06:42;;;;;;;16.67;7.60;;;4.40;99.90;;;;;;5087319;28;20141;-89
2023/12/08 10:09:08;;;;;;;21.20;8.07;;;4.30;99.90;;;;;;5079952;28;20035;-88
2023/12/08 10:11:34;;;;;;;18.40;7.93;;;4.40;99.90;;;;;;5093360;28;20465;-86
2023/12/08 10:14:01;;;;;;;23.33;7.63;;;4.40;99.90;;;;;;5087958;28;20024;-87
2023/12/08 10:16:27;;;;;;;14.27;7.27;;;4.40;99.90;;;;;;5085198;28;20067;-87
2023/12/08 10:19:04;;;;;;;20.47;7.90;;;4.40;99.90;;;;;;5089891;28;20031;-86
2023/12/08 10:21:29;;;;;;;13.83;7.40;;;4.40;99.90;;;;;;5094649;28;20031;-89
2023/12/08 10:24:02;;;;;;;17.77;8.23;;;4.40;99.90;;;;;;5089704;28;20020;-86
2023/12/08 10:26:29;;;;;;;18.97;7.83;;;4.50;99.90;;;;;;5083760;28;20065;-87
2023/12/08 10:28:56;;;;;;;17.13;7.87;;;4.50;99.90;;;;;;5080051;28;20032;-89
2023/12/08 10:31:22;;;;;;;15.13;7.67;;;4.60;99.90;;;;;;5078143;28;20029;-89
2023/12/08 10:33:51;;;;;;;18.17;8.43;;;4.70;99.90;;;;;;5094353;28;20460;-82
2023/12/08 10:36:18;;;;;;;16.30;7.83;;;4.70;99.90;;;;;;5085136;28;20044;-85
2023/12/08 10:38:44;;;;;;;18.07;8.43;;;4.70;99.90;;;;;;5085024;28;20032;-88
2023/12/08 10:41:10;;;;;;;18.97;7.70;;;4.80;99.90;;;;;;5093228;28;20070;-88
2023/12/08 10:43:40;;;;;;;17.63;8.20;;;4.80;99.90;;;;;;5079392;28;20024;-87
2023/12/08 10:46:07;;;;;;;16.13;7.90;;;4.80;99.90;;;;;;5080190;28;20028;-86
2023/12/08 10:48:34;;;;;;;17.47;8.40;;;4.80;99.90;;;;;;5094540;28;20067;-84
2023/12/08 10:51:00;;;;;;;19.33;7.80;;;4.80;99.90;;;;;;5094245;28;20048;-88
2023/12/08 10:53:26;;;;;;;16.40;8.03;;;4.90;99.90;;;;;;5093296;28;20069;-90
2023/12/08 10:55:53;;;;;;;15.33;7.70;;;4.90;99.90;;;;;;5077871;28;20024;-88
2023/12/08 10:58:22;;;;;;;15.17;7.23;;;4.90;99.90;;;;;;5085048;28;20017;-90
2023/12/08 11:00:53;;;;;;;16.30;7.30;;;5.00;99.90;;;;;;5085482;28;20028;-89
2023/12/08 11:03:25;;;;;;;17.25;8.45;;;5.00;99.90;;;;;;5093666;28;20032;-84
2023/12/08 11:06:01;;;;;;;17.67;8.00;;;5.10;99.90;;;;;;5077175;28;20035;-84
2023/12/08 11:08:28;;;;;;;15.77;8.20;;;5.10;99.90;;;;;;5084424;28;20036;-85
2023/12/08 11:10:57;;;;;;;15.43;8.00;;;5.10;99.90;;;;;;5072469;28;20028;-85
2023/12/08 11:13:30;;;;;;;17.17;7.67;;;5.20;99.90;;;;;;5089155;28;20540;-85
2023/12/08 11:16:35;;;;;;;19.37;8.30;;;5.20;99.90;;;;;;5078466;28;20027;-84
2023/12/08 11:19:00;;;;;;;16.00;8.07;;;5.20;99.90;;;;;;5087625;28;20016;-85
2023/12/08 11:21:27;;;;;;;16.77;7.87;;;5.20;99.90;;;;;;5092620;28;20165;-90
2023/12/08 11:23:54;;;;;;;18.47;8.70;;;5.20;99.90;;;;;;5093738;28;20059;-91
2023/12/08 11:26:41;;;;;;;17.33;8.53;;;5.20;99.90;;;;;;5084864;28;20115;-89
2023/12/08 11:29:43;;;;;;;16.37;7.97;;;5.20;99.90;;;;;;5088186;28;20032;-92
2023/12/08 11:32:35;;;;;;;18.03;8.20;;;5.20;99.90;;;;;;5096869;28;20120;-91
2023/12/08 11:35:04;;;;;;;20.83;8.80;;;5.20;99.90;;;;;;5092630;28;20063;-85
2023/12/08 11:37:32;;;;;;;15.70;7.90;;;5.30;99.90;;;;;;5075832;28;20036;-86
2023/12/08 11:40:10;;;;;;;20.87;9.13;;;5.30;99.90;;;;;;5086390;28;20413;-86
2023/12/08 11:42:41;;;;;;;17.43;8.80;;;5.30;99.90;;;;;;5083507;28;20031;-87
2023/12/08 11:45:08;;;;;;;18.60;9.00;;;5.30;99.90;;;;;;5087809;28;20085;-88
2023/12/08 11:47:35;;;;;;;17.87;8.80;;;5.30;99.90;;;;;;5090184;28;20028;-89
2023/12/08 11:50:03;;;;;;;23.47;9.80;;;5.30;99.90;;;;;;5090900;28;20016;-86
2023/12/08 11:52:31;;;;;;;16.57;9.00;;;5.30;99.90;;;;;;5092518;28;20027;-89
2023/12/08 11:55:19;;;;;;;19.57;9.47;;;5.30;99.90;;;;;;5078436;28;20047;-89
2023/12/08 11:57:54;;;;;;;19.23;9.23;;;5.30;99.90;;;;;;5072582;28;20025;-88
2023/12/08 12:00:22;;;;;;;17.67;8.70;;;5.30;99.90;;;;;;5082342;28;20016;-89
2023/12/08 12:02:49;;;;;;;16.93;8.43;;;5.40;99.90;;;;;;5092338;28;20036;-90
2023/12/08 12:05:15;;;;;;;18.50;8.73;;;5.40;99.90;;;;;;5076520;28;20020;-86
2023/12/08 12:07:46;;;;;;;19.27;9.60;;;5.40;99.90;;;;;;5088645;28;20031;-88
2023/12/08 12:10:15;;;;;;;20.27;9.73;;;5.40;99.90;;;;;;5080178;28;20415;-87
2023/12/08 12:12:44;;;;;;;21.23;9.53;;;5.40;99.90;;;;;;5080009;28;20035;-85
2023/12/08 12:15:11;;;;;;;20.40;9.17;;;5.40;99.90;;;;;;5089022;28;20032;-88
2023/12/08 12:17:40;;;;;;;18.83;9.00;;;5.50;99.90;;;;;;5075464;28;20469;-86
2023/12/08 12:20:08;;;;;;;19.13;9.50;;;5.50;99.90;;;;;;5092166;28;20023;-86
2023/12/08 12:22:33;;;;;;;22.80;10.00;;;5.50;99.90;;;;;;5091897;28;20071;-91
2023/12/08 12:24:59;;;;;;;23.03;10.10;;;5.60;99.90;;;;;;5079003;28;20187;-92
2023/12/08 12:27:24;;;;;;;23.27;10.37;;;5.60;99.90;;;;;;5077353;28;20035;-91
2023/12/08 12:29:50;;;;;;;23.13;10.10;;;5.60;99.90;;;;;;5091322;28;20028;-91
2023/12/08 12:32:16;;;;;;;23.87;9.63;;;5.50;99.90;;;;;;5084346;28;20043;-91
2023/12/08 12:34:41;;;;;;;21.00;10.33;;;5.50;99.90;;;;;;5084670;28;20115;-92
2023/12/08 12:37:08;;;;;;;21.40;9.70;;;5.50;99.90;;;;;;5091296;28;20055;-91
2023/12/08 12:39:34;;;;;;;23.63;10.97;;;5.50;99.90;;;;;;5079010;28;20127;-91
2023/12/08 12:42:01;;;;;;;20.60;9.80;;;5.60;99.90;;;;;;5090661;28;20107;-91
2023/12/08 12:44:43;;;;;;;21.07;10.07;;;5.60;99.90;;;;;;5085439;28;20032;-91